sensor_id;sensor_type;location;lat;lon;timestamp;P1;durP1;ratioP1;P2;durP2;ratioP2
26060;SDS011;36331;51.378;0.018;2023-03-19T00:01:13;5.28;;;2.40;;
26060;SDS011;36331;51.378;0.018;2023-03-19T00:03:42;4.50;;;1.90;;
26060;SDS011;36331;51.378;0.018;2023-03-19T00:06:13;6.72;;;1.73;;
26060;SDS011;36331;51.378;0.018;2023-03-19T00:08:42;4.85;;;2.30;;
26060;SDS011;36331;51.378;0.018;2023-03-19T00:11:11;4.68;;;1.92;;
26060;SDS011;36331;51.378;0.018;2023-03-19T00:13:41;6.32;;;2.25;;
26060;SDS011;36331;51.378;0.018;2023-03-19T00:16:10;5.47;;;2.00;;
26060;SDS011;36331;51.378;0.018;2023-03-19T00:18:41;3.33;;;2.38;;
26060;SDS011;36331;51.378;0.018;2023-03-19T00:21:10;5.70;;;3.40;;
26060;SDS011;36331;51.378;0.018;2023-03-19T00:23:40;3.63;;;1.83;;
26060;SDS011;36331;51.378;0.018;2023-03-19T00:26:09;4.72;;;1.90;;
26060;SDS011;36331;51.378;0.018;2023-03-19T00:28:41;4.03;;;2.30;;
26060;SDS011;36331;51.378;0.018;2023-03-19T00:31:12;5.03;;;2.40;;
26060;SDS011;36331;51.378;0.018;2023-03-19T00:33:43;4.90;;;1.77;;
26060;SDS011;36331;51.378;0.018;2023-03-19T00:36:13;4.18;;;2.22;;
26060;SDS011;36331;51.378;0.018;2023-03-19T00:38:43;5.55;;;2.20;;
26060;SDS011;36331;51.378;0.018;2023-03-19T00:41:15;4.15;;;1.67;;
26060;SDS011;36331;51.378;0.018;2023-03-19T00:43:45;2.80;;;1.23;;
26060;SDS011;36331;51.378;0.018;2023-03-19T00:46:18;6.07;;;2.30;;
26060;SDS011;36331;51.378;0.018;2023-03-19T00:48:50;6.85;;;2.22;;
26060;SDS011;36331;51.378;0.018;2023-03-19T00:51:22;3.97;;;2.30;;
26060;SDS011;36331;51.378;0.018;2023-03-19T00:53:52;3.03;;;1.80;;
26060;SDS011;36331;51.378;0.018;2023-03-19T00:56:21;3.53;;;1.73;;
26060;SDS011;36331;51.378;0.018;2023-03-19T00:58:50;4.72;;;1.95;;
26060;SDS011;36331;51.378;0.018;2023-03-19T01:01:19;4.20;;;2.20;;
26060;SDS011;36331;51.378;0.018;2023-03-19T01:03:50;5.05;;;1.75;;
26060;SDS011;36331;51.378;0.018;2023-03-19T01:06:19;3.40;;;1.67;;
26060;SDS011;36331;51.378;0.018;2023-03-19T01:08:50;3.90;;;2.67;;
26060;SDS011;36331;51.378;0.018;2023-03-19T01:11:19;3.72;;;1.63;;
26060;SDS011;36331;51.378;0.018;2023-03-19T01:13:48;4.90;;;2.08;;
26060;SDS011;36331;51.378;0.018;2023-03-19T01:16:17;2.70;;;1.58;;
26060;SDS011;36331;51.378;0.018;2023-03-19T01:18:48;2.25;;;1.60;;
26060;SDS011;36331;51.378;0.018;2023-03-19T01:21:19;2.50;;;1.70;;
26060;SDS011;36331;51.378;0.018;2023-03-19T01:23:49;3.80;;;1.60;;
26060;SDS011;36331;51.378;0.018;2023-03-19T01:26:21;3.35;;;1.70;;
26060;SDS011;36331;51.378;0.018;2023-03-19T01:28:58;3.63;;;1.98;;
26060;SDS011;36331;51.378;0.018;2023-03-19T01:31:28;3.05;;;1.63;;
26060;SDS011;36331;51.378;0.018;2023-03-19T01:34:16;3.55;;;1.70;;
26060;SDS011;36331;51.378;0.018;2023-03-19T01:36:51;7.00;;;1.85;;
26060;SDS011;36331;51.378;0.018;2023-03-19T01:39:28;5.40;;;2.38;;
26060;SDS011;36331;51.378;0.018;2023-03-19T01:41:59;5.10;;;2.33;;
26060;SDS011;36331;51.378;0.018;2023-03-19T01:44:47;4.30;;;2.13;;
26060;SDS011;36331;51.378;0.018;2023-03-19T01:47:24;2.90;;;2.05;;
26060;SDS011;36331;51.378;0.018;2023-03-19T01:50:18;4.50;;;2.30;;
26060;SDS011;36331;51.378;0.018;2023-03-19T01:52:54;4.60;;;2.50;;
26060;SDS011;36331;51.378;0.018;2023-03-19T01:55:33;3.40;;;2.35;;
26060;SDS011;36331;51.378;0.018;2023-03-19T01:58:09;4.65;;;2.75;;
26060;SDS011;36331;51.378;0.018;2023-03-19T02:01:00;3.40;;;2.17;;
26060;SDS011;36331;51.378;0.018;2023-03-19T02:03:32;3.40;;;2.43;;
26060;SDS011;36331;51.378;0.018;2023-03-19T02:06:16;3.80;;;2.65;;
26060;SDS011;36331;51.378;0.018;2023-03-19T02:08:48;4.90;;;2.55;;
26060;SDS011;36331;51.378;0.018;2023-03-19T02:11:18;5.28;;;2.40;;
26060;SDS011;36331;51.378;0.018;2023-03-19T02:13:48;3.72;;;2.28;;
26060;SDS011;36331;51.378;0.018;2023-03-19T02:16:17;3.85;;;1.95;;
26060;SDS011;36331;51.378;0.018;2023-03-19T02:18:47;4.45;;;2.83;;
26060;SDS011;36331;51.378;0.018;2023-03-19T02:21:17;2.03;;;1.80;;
26060;SDS011;36331;51.378;0.018;2023-03-19T02:23:50;2.63;;;1.23;;
26060;SDS011;36331;51.378;0.018;2023-03-19T02:26:40;3.63;;;1.27;;
26060;SDS011;36331;51.378;0.018;2023-03-19T02:29:09;2.83;;;1.10;;
26060;SDS011;36331;51.378;0.018;2023-03-19T02:31:39;3.72;;;1.60;;
26060;SDS011;36331;51.378;0.018;2023-03-19T02:37:00;4.55;;;1.10;;
26060;SDS011;36331;51.378;0.018;2023-03-19T02:39:32;4.07;;;1.17;;
26060;SDS011;36331;51.378;0.018;2023-03-19T02:42:04;2.40;;;1.15;;
26060;SDS011;36331;51.378;0.018;2023-03-19T02:44:34;2.08;;;1.20;;
26060;SDS011;36331;51.378;0.018;2023-03-19T02:47:03;5.72;;;1.42;;
26060;SDS011;36331;51.378;0.018;2023-03-19T02:49:33;2.08;;;1.25;;
26060;SDS011;36331;51.378;0.018;2023-03-19T02:52:02;2.75;;;1.33;;
26060;SDS011;36331;51.378;0.018;2023-03-19T02:54:31;3.22;;;1.40;;
26060;SDS011;36331;51.378;0.018;2023-03-19T02:57:01;1.75;;;0.90;;
26060;SDS011;36331;51.378;0.018;2023-03-19T02:59:31;3.33;;;1.08;;
26060;SDS011;36331;51.378;0.018;2023-03-19T03:02:01;3.33;;;0.98;;
26060;SDS011;36331;51.378;0.018;2023-03-19T03:04:31;3.28;;;1.27;;
26060;SDS011;36331;51.378;0.018;2023-03-19T03:07:00;4.68;;;2.35;;
26060;SDS011;36331;51.378;0.018;2023-03-19T03:09:29;2.42;;;1.17;;
26060;SDS011;36331;51.378;0.018;2023-03-19T03:11:58;1.88;;;0.88;;
26060;SDS011;36331;51.378;0.018;2023-03-19T03:14:28;2.17;;;0.93;;
26060;SDS011;36331;51.378;0.018;2023-03-19T03:16:58;2.50;;;0.80;;
26060;SDS011;36331;51.378;0.018;2023-03-19T03:19:27;2.55;;;0.95;;
26060;SDS011;36331;51.378;0.018;2023-03-19T03:21:56;3.10;;;0.93;;
26060;SDS011;36331;51.378;0.018;2023-03-19T03:24:26;2.25;;;0.93;;
26060;SDS011;36331;51.378;0.018;2023-03-19T03:26:55;2.75;;;1.15;;
26060;SDS011;36331;51.378;0.018;2023-03-19T03:29:26;1.20;;;0.70;;
26060;SDS011;36331;51.378;0.018;2023-03-19T03:31:55;3.35;;;0.80;;
26060;SDS011;36331;51.378;0.018;2023-03-19T03:34:26;3.20;;;0.90;;
26060;SDS011;36331;51.378;0.018;2023-03-19T03:36:55;2.05;;;1.13;;
26060;SDS011;36331;51.378;0.018;2023-03-19T03:39:24;1.75;;;0.82;;
26060;SDS011;36331;51.378;0.018;2023-03-19T03:41:54;3.08;;;0.85;;
26060;SDS011;36331;51.378;0.018;2023-03-19T03:44:23;3.38;;;1.13;;
26060;SDS011;36331;51.378;0.018;2023-03-19T03:46:54;4.80;;;0.77;;
26060;SDS011;36331;51.378;0.018;2023-03-19T03:49:23;3.58;;;1.25;;
26060;SDS011;36331;51.378;0.018;2023-03-19T03:51:53;3.28;;;1.30;;
26060;SDS011;36331;51.378;0.018;2023-03-19T03:54:23;5.03;;;1.47;;
26060;SDS011;36331;51.378;0.018;2023-03-19T03:56:52;2.17;;;0.90;;
26060;SDS011;36331;51.378;0.018;2023-03-19T03:59:21;1.67;;;0.90;;
26060;SDS011;36331;51.378;0.018;2023-03-19T04:01:52;4.68;;;1.55;;
26060;SDS011;36331;51.378;0.018;2023-03-19T04:04:21;3.75;;;1.35;;
26060;SDS011;36331;51.378;0.018;2023-03-19T04:06:50;4.25;;;1.10;;
26060;SDS011;36331;51.378;0.018;2023-03-19T04:09:35;2.85;;;1.23;;
26060;SDS011;36331;51.378;0.018;2023-03-19T04:12:05;5.72;;;2.40;;
26060;SDS011;36331;51.378;0.018;2023-03-19T04:14:34;7.00;;;1.25;;
26060;SDS011;36331;51.378;0.018;2023-03-19T04:17:03;4.45;;;1.67;;
26060;SDS011;36331;51.378;0.018;2023-03-19T04:19:32;16.98;;;2.42;;
26060;SDS011;36331;51.378;0.018;2023-03-19T04:22:02;4.53;;;1.75;;
26060;SDS011;36331;51.378;0.018;2023-03-19T04:27:05;4.65;;;2.00;;
26060;SDS011;36331;51.378;0.018;2023-03-19T04:29:36;4.93;;;1.35;;
26060;SDS011;36331;51.378;0.018;2023-03-19T04:32:07;3.63;;;2.10;;
26060;SDS011;36331;51.378;0.018;2023-03-19T04:34:36;7.72;;;1.65;;
26060;SDS011;36331;51.378;0.018;2023-03-19T04:37:06;3.28;;;1.98;;
26060;SDS011;36331;51.378;0.018;2023-03-19T04:39:44;5.75;;;1.73;;
26060;SDS011;36331;51.378;0.018;2023-03-19T04:42:15;5.32;;;1.85;;
26060;SDS011;36331;51.378;0.018;2023-03-19T04:44:51;6.45;;;1.83;;
26060;SDS011;36331;51.378;0.018;2023-03-19T04:47:22;2.90;;;1.58;;
26060;SDS011;36331;51.378;0.018;2023-03-19T04:49:55;3.60;;;1.98;;
26060;SDS011;36331;51.378;0.018;2023-03-19T04:52:25;2.70;;;1.75;;
26060;SDS011;36331;51.378;0.018;2023-03-19T04:54:55;4.57;;;1.83;;
26060;SDS011;36331;51.378;0.018;2023-03-19T04:57:26;6.38;;;2.00;;
26060;SDS011;36331;51.378;0.018;2023-03-19T04:59:56;4.10;;;1.55;;
26060;SDS011;36331;51.378;0.018;2023-03-19T05:02:27;3.83;;;1.50;;
26060;SDS011;36331;51.378;0.018;2023-03-19T05:04:57;2.85;;;1.65;;
26060;SDS011;36331;51.378;0.018;2023-03-19T05:07:26;4.28;;;1.75;;
26060;SDS011;36331;51.378;0.018;2023-03-19T05:09:58;4.10;;;1.48;;
26060;SDS011;36331;51.378;0.018;2023-03-19T05:12:30;5.28;;;1.63;;
26060;SDS011;36331;51.378;0.018;2023-03-19T05:14:59;6.05;;;1.50;;
26060;SDS011;36331;51.378;0.018;2023-03-19T05:17:31;5.68;;;1.80;;
26060;SDS011;36331;51.378;0.018;2023-03-19T05:20:21;4.85;;;2.85;;
26060;SDS011;36331;51.378;0.018;2023-03-19T05:22:56;4.63;;;1.90;;
26060;SDS011;36331;51.378;0.018;2023-03-19T05:25:39;7.55;;;1.73;;
26060;SDS011;36331;51.378;0.018;2023-03-19T05:28:13;5.72;;;1.60;;
26060;SDS011;36331;51.378;0.018;2023-03-19T05:30:43;6.03;;;2.00;;
26060;SDS011;36331;51.378;0.018;2023-03-19T05:33:23;5.63;;;1.50;;
26060;SDS011;36331;51.378;0.018;2023-03-19T05:35:53;4.38;;;1.30;;
26060;SDS011;36331;51.378;0.018;2023-03-19T05:38:32;3.05;;;1.00;;
26060;SDS011;36331;51.378;0.018;2023-03-19T05:41:08;6.70;;;1.35;;
26060;SDS011;36331;51.378;0.018;2023-03-19T05:43:57;4.63;;;1.38;;
26060;SDS011;36331;51.378;0.018;2023-03-19T05:46:46;5.53;;;1.30;;
26060;SDS011;36331;51.378;0.018;2023-03-19T05:49:18;2.45;;;1.25;;
26060;SDS011;36331;51.378;0.018;2023-03-19T05:51:48;4.35;;;1.10;;
26060;SDS011;36331;51.378;0.018;2023-03-19T05:54:18;1.52;;;0.52;;
26060;SDS011;36331;51.378;0.018;2023-03-19T05:57:10;6.25;;;1.27;;
26060;SDS011;36331;51.378;0.018;2023-03-19T05:59:56;6.38;;;1.52;;
26060;SDS011;36331;51.378;0.018;2023-03-19T06:02:29;2.40;;;0.98;;
26060;SDS011;36331;51.378;0.018;2023-03-19T06:05:19;6.13;;;1.00;;
26060;SDS011;36331;51.378;0.018;2023-03-19T06:07:53;8.48;;;1.15;;
26060;SDS011;36331;51.378;0.018;2023-03-19T06:10:45;6.07;;;0.88;;
26060;SDS011;36331;51.378;0.018;2023-03-19T06:13:15;5.50;;;1.02;;
26060;SDS011;36331;51.378;0.018;2023-03-19T06:16:13;6.65;;;1.60;;
26060;SDS011;36331;51.378;0.018;2023-03-19T06:21:23;5.05;;;1.40;;
26060;SDS011;36331;51.378;0.018;2023-03-19T06:23:58;3.95;;;0.98;;
26060;SDS011;36331;51.378;0.018;2023-03-19T06:26:32;7.55;;;1.55;;
26060;SDS011;36331;51.378;0.018;2023-03-19T06:29:07;7.53;;;1.83;;
26060;SDS011;36331;51.378;0.018;2023-03-19T06:31:40;4.20;;;0.90;;
26060;SDS011;36331;51.378;0.018;2023-03-19T06:34:19;6.05;;;1.00;;
26060;SDS011;36331;51.378;0.018;2023-03-19T06:36:48;4.72;;;0.90;;
26060;SDS011;36331;51.378;0.018;2023-03-19T06:39:19;8.77;;;1.30;;
26060;SDS011;36331;51.378;0.018;2023-03-19T06:41:49;5.50;;;1.33;;
26060;SDS011;36331;51.378;0.018;2023-03-19T06:44:22;6.15;;;1.00;;
26060;SDS011;36331;51.378;0.018;2023-03-19T06:46:53;3.72;;;1.10;;
26060;SDS011;36331;51.378;0.018;2023-03-19T06:49:22;5.30;;;1.30;;
26060;SDS011;36331;51.378;0.018;2023-03-19T06:51:51;4.15;;;1.15;;
26060;SDS011;36331;51.378;0.018;2023-03-19T06:54:20;11.13;;;1.30;;
26060;SDS011;36331;51.378;0.018;2023-03-19T06:56:49;6.07;;;0.93;;
26060;SDS011;36331;51.378;0.018;2023-03-19T06:59:18;5.80;;;1.20;;
26060;SDS011;36331;51.378;0.018;2023-03-19T07:01:48;3.83;;;1.23;;
26060;SDS011;36331;51.378;0.018;2023-03-19T07:04:20;7.28;;;1.35;;
26060;SDS011;36331;51.378;0.018;2023-03-19T07:06:49;3.78;;;1.25;;
26060;SDS011;36331;51.378;0.018;2023-03-19T07:09:18;4.00;;;1.00;;
26060;SDS011;36331;51.378;0.018;2023-03-19T07:11:48;6.00;;;1.77;;
26060;SDS011;36331;51.378;0.018;2023-03-19T07:14:18;1.70;;;0.80;;
26060;SDS011;36331;51.378;0.018;2023-03-19T07:16:46;3.90;;;0.82;;
26060;SDS011;36331;51.378;0.018;2023-03-19T07:19:16;3.83;;;1.00;;
26060;SDS011;36331;51.378;0.018;2023-03-19T07:21:48;5.53;;;1.23;;
26060;SDS011;36331;51.378;0.018;2023-03-19T07:24:17;3.58;;;1.25;;
26060;SDS011;36331;51.378;0.018;2023-03-19T07:26:46;3.92;;;0.93;;
26060;SDS011;36331;51.378;0.018;2023-03-19T07:29:15;3.65;;;1.15;;
26060;SDS011;36331;51.378;0.018;2023-03-19T07:31:44;5.45;;;1.58;;
26060;SDS011;36331;51.378;0.018;2023-03-19T07:34:13;6.13;;;1.52;;
26060;SDS011;36331;51.378;0.018;2023-03-19T07:36:42;3.55;;;1.35;;
26060;SDS011;36331;51.378;0.018;2023-03-19T07:39:14;2.38;;;1.00;;
26060;SDS011;36331;51.378;0.018;2023-03-19T07:41:43;7.57;;;1.27;;
26060;SDS011;36331;51.378;0.018;2023-03-19T07:44:14;2.85;;;1.27;;
26060;SDS011;36331;51.378;0.018;2023-03-19T07:46:44;3.35;;;0.82;;
26060;SDS011;36331;51.378;0.018;2023-03-19T07:49:13;3.97;;;1.45;;
26060;SDS011;36331;51.378;0.018;2023-03-19T07:51:42;2.35;;;0.85;;
26060;SDS011;36331;51.378;0.018;2023-03-19T07:54:11;4.45;;;1.10;;
26060;SDS011;36331;51.378;0.018;2023-03-19T07:56:42;3.03;;;1.05;;
26060;SDS011;36331;51.378;0.018;2023-03-19T07:59:11;4.35;;;1.10;;
26060;SDS011;36331;51.378;0.018;2023-03-19T08:01:40;8.05;;;2.78;;
26060;SDS011;36331;51.378;0.018;2023-03-19T08:04:09;5.90;;;1.02;;
26060;SDS011;36331;51.378;0.018;2023-03-19T08:06:39;3.63;;;1.10;;
26060;SDS011;36331;51.378;0.018;2023-03-19T08:09:09;1.58;;;0.50;;
26060;SDS011;36331;51.378;0.018;2023-03-19T08:11:39;3.35;;;0.88;;
26060;SDS011;36331;51.378;0.018;2023-03-19T08:14:10;8.32;;;1.45;;
26060;SDS011;36331;51.378;0.018;2023-03-19T08:16:39;6.18;;;1.63;;
26060;SDS011;36331;51.378;0.018;2023-03-19T08:19:11;4.03;;;0.82;;
26060;SDS011;36331;51.378;0.018;2023-03-19T08:21:41;8.43;;;1.17;;
26060;SDS011;36331;51.378;0.018;2023-03-19T08:24:10;4.75;;;1.27;;
26060;SDS011;36331;51.378;0.018;2023-03-19T08:26:40;2.55;;;1.17;;
26060;SDS011;36331;51.378;0.018;2023-03-19T08:29:10;3.80;;;1.00;;
26060;SDS011;36331;51.378;0.018;2023-03-19T08:31:39;5.90;;;1.25;;
26060;SDS011;36331;51.378;0.018;2023-03-19T08:34:09;6.70;;;1.35;;
26060;SDS011;36331;51.378;0.018;2023-03-19T08:36:38;5.28;;;1.05;;
26060;SDS011;36331;51.378;0.018;2023-03-19T08:39:07;7.85;;;2.03;;
26060;SDS011;36331;51.378;0.018;2023-03-19T08:41:36;2.95;;;0.95;;
26060;SDS011;36331;51.378;0.018;2023-03-19T08:44:06;5.05;;;1.30;;
26060;SDS011;36331;51.378;0.018;2023-03-19T08:46:37;7.32;;;2.22;;
26060;SDS011;36331;51.378;0.018;2023-03-19T08:49:06;5.47;;;1.30;;
26060;SDS011;36331;51.378;0.018;2023-03-19T08:51:37;3.25;;;1.42;;
26060;SDS011;36331;51.378;0.018;2023-03-19T08:54:06;4.20;;;0.70;;
26060;SDS011;36331;51.378;0.018;2023-03-19T08:56:37;6.47;;;0.87;;
26060;SDS011;36331;51.378;0.018;2023-03-19T08:59:06;3.70;;;0.95;;
26060;SDS011;36331;51.378;0.018;2023-03-19T09:01:38;4.20;;;1.27;;
26060;SDS011;36331;51.378;0.018;2023-03-19T09:04:07;6.03;;;1.10;;
26060;SDS011;36331;51.378;0.018;2023-03-19T09:06:37;4.80;;;2.25;;
26060;SDS011;36331;51.378;0.018;2023-03-19T09:09:10;4.95;;;1.40;;
26060;SDS011;36331;51.378;0.018;2023-03-19T09:11:39;4.45;;;1.33;;
26060;SDS011;36331;51.378;0.018;2023-03-19T09:14:08;7.32;;;1.38;;
26060;SDS011;36331;51.378;0.018;2023-03-19T09:16:40;5.20;;;1.00;;
26060;SDS011;36331;51.378;0.018;2023-03-19T09:19:09;6.63;;;0.85;;
26060;SDS011;36331;51.378;0.018;2023-03-19T09:21:38;9.32;;;1.40;;
26060;SDS011;36331;51.378;0.018;2023-03-19T09:24:07;4.75;;;1.00;;
26060;SDS011;36331;51.378;0.018;2023-03-19T09:26:37;3.47;;;1.38;;
26060;SDS011;36331;51.378;0.018;2023-03-19T09:29:06;5.57;;;0.95;;
26060;SDS011;36331;51.378;0.018;2023-03-19T09:31:36;4.22;;;0.98;;
26060;SDS011;36331;51.378;0.018;2023-03-19T09:34:07;4.10;;;1.00;;
26060;SDS011;36331;51.378;0.018;2023-03-19T09:36:36;6.50;;;1.48;;
26060;SDS011;36331;51.378;0.018;2023-03-19T09:39:06;5.85;;;1.63;;
26060;SDS011;36331;51.378;0.018;2023-03-19T09:41:37;4.03;;;1.40;;
26060;SDS011;36331;51.378;0.018;2023-03-19T09:44:10;12.48;;;1.38;;
26060;SDS011;36331;51.378;0.018;2023-03-19T09:49:13;3.90;;;1.42;;
26060;SDS011;36331;51.378;0.018;2023-03-19T09:51:45;4.45;;;0.98;;
26060;SDS011;36331;51.378;0.018;2023-03-19T09:54:21;3.83;;;1.00;;
26060;SDS011;36331;51.378;0.018;2023-03-19T09:56:53;2.63;;;0.82;;
26060;SDS011;36331;51.378;0.018;2023-03-19T09:59:23;4.78;;;0.90;;
26060;SDS011;36331;51.378;0.018;2023-03-19T10:01:56;3.47;;;0.90;;
26060;SDS011;36331;51.378;0.018;2023-03-19T10:04:35;2.40;;;0.90;;
26060;SDS011;36331;51.378;0.018;2023-03-19T10:07:09;3.90;;;0.95;;
26060;SDS011;36331;51.378;0.018;2023-03-19T10:09:43;3.28;;;1.30;;
26060;SDS011;36331;51.378;0.018;2023-03-19T10:12:20;4.18;;;0.80;;
26060;SDS011;36331;51.378;0.018;2023-03-19T10:14:57;3.58;;;1.00;;
26060;SDS011;36331;51.378;0.018;2023-03-19T10:17:30;3.08;;;1.33;;
26060;SDS011;36331;51.378;0.018;2023-03-19T10:20:03;4.40;;;1.13;;
26060;SDS011;36331;51.378;0.018;2023-03-19T10:22:35;4.80;;;0.80;;
26060;SDS011;36331;51.378;0.018;2023-03-19T10:25:04;2.35;;;0.80;;
26060;SDS011;36331;51.378;0.018;2023-03-19T10:27:37;3.78;;;2.10;;
26060;SDS011;36331;51.378;0.018;2023-03-19T10:30:12;3.45;;;0.88;;
26060;SDS011;36331;51.378;0.018;2023-03-19T10:32:42;1.50;;;0.90;;
26060;SDS011;36331;51.378;0.018;2023-03-19T10:35:17;2.85;;;0.65;;
26060;SDS011;36331;51.378;0.018;2023-03-19T10:37:47;2.33;;;1.08;;
26060;SDS011;36331;51.378;0.018;2023-03-19T10:40:19;3.63;;;1.35;;
26060;SDS011;36331;51.378;0.018;2023-03-19T10:45:20;4.70;;;0.73;;
26060;SDS011;36331;51.378;0.018;2023-03-19T10:47:53;7.63;;;0.90;;
26060;SDS011;36331;51.378;0.018;2023-03-19T10:50:28;2.17;;;0.60;;
26060;SDS011;36331;51.378;0.018;2023-03-19T10:53:01;2.10;;;0.60;;
26060;SDS011;36331;51.378;0.018;2023-03-19T10:55:32;2.78;;;0.50;;
26060;SDS011;36331;51.378;0.018;2023-03-19T10:58:03;2.90;;;0.75;;
26060;SDS011;36331;51.378;0.018;2023-03-19T11:00:33;1.90;;;0.68;;
26060;SDS011;36331;51.378;0.018;2023-03-19T11:03:02;1.23;;;0.60;;
26060;SDS011;36331;51.378;0.018;2023-03-19T11:05:33;0.77;;;0.40;;
26060;SDS011;36331;51.378;0.018;2023-03-19T11:08:04;1.40;;;0.60;;
26060;SDS011;36331;51.378;0.018;2023-03-19T11:10:34;3.15;;;0.70;;
26060;SDS011;36331;51.378;0.018;2023-03-19T11:13:05;0.88;;;0.50;;
26060;SDS011;36331;51.378;0.018;2023-03-19T11:15:35;3.63;;;0.68;;
26060;SDS011;36331;51.378;0.018;2023-03-19T11:18:05;4.35;;;0.57;;
26060;SDS011;36331;51.378;0.018;2023-03-19T11:20:37;1.63;;;0.47;;
26060;SDS011;36331;51.378;0.018;2023-03-19T11:23:10;3.60;;;0.75;;
26060;SDS011;36331;51.378;0.018;2023-03-19T11:25:41;1.95;;;0.55;;
26060;SDS011;36331;51.378;0.018;2023-03-19T11:28:11;1.55;;;0.60;;
26060;SDS011;36331;51.378;0.018;2023-03-19T11:30:42;2.83;;;0.57;;
26060;SDS011;36331;51.378;0.018;2023-03-19T11:33:17;1.45;;;0.40;;
26060;SDS011;36331;51.378;0.018;2023-03-19T11:35:55;1.05;;;0.50;;
26060;SDS011;36331;51.378;0.018;2023-03-19T11:38:29;0.85;;;0.60;;
26060;SDS011;36331;51.378;0.018;2023-03-19T11:41:06;3.05;;;0.47;;
26060;SDS011;36331;51.378;0.018;2023-03-19T11:43:40;1.25;;;0.50;;
26060;SDS011;36331;51.378;0.018;2023-03-19T11:46:15;1.42;;;0.70;;
26060;SDS011;36331;51.378;0.018;2023-03-19T11:51:36;0.65;;;0.30;;
26060;SDS011;36331;51.378;0.018;2023-03-19T11:54:08;2.20;;;0.55;;
26060;SDS011;36331;51.378;0.018;2023-03-19T11:56:39;1.27;;;0.40;;
26060;SDS011;36331;51.378;0.018;2023-03-19T12:04:50;0.63;;;0.50;;
26060;SDS011;36331;51.378;0.018;2023-03-19T12:07:27;2.80;;;1.30;;
26060;SDS011;36331;51.378;0.018;2023-03-19T12:10:02;2.85;;;1.25;;
26060;SDS011;36331;51.378;0.018;2023-03-19T12:12:33;2.08;;;0.60;;
26060;SDS011;36331;51.378;0.018;2023-03-19T12:15:09;1.60;;;0.47;;
26060;SDS011;36331;51.378;0.018;2023-03-19T12:17:45;1.83;;;1.10;;
26060;SDS011;36331;51.378;0.018;2023-03-19T12:23:09;3.60;;;0.57;;
26060;SDS011;36331;51.378;0.018;2023-03-19T12:25:51;1.42;;;0.60;;
26060;SDS011;36331;51.378;0.018;2023-03-19T12:28:27;1.38;;;0.40;;
26060;SDS011;36331;51.378;0.018;2023-03-19T12:31:02;1.42;;;0.50;;
26060;SDS011;36331;51.378;0.018;2023-03-19T12:33:39;2.13;;;0.50;;
26060;SDS011;36331;51.378;0.018;2023-03-19T12:36:11;3.20;;;0.63;;
26060;SDS011;36331;51.378;0.018;2023-03-19T12:38:50;1.20;;;0.60;;
26060;SDS011;36331;51.378;0.018;2023-03-19T12:41:21;3.17;;;0.77;;
26060;SDS011;36331;51.378;0.018;2023-03-19T12:43:53;1.70;;;0.50;;
26060;SDS011;36331;51.378;0.018;2023-03-19T12:46:24;6.63;;;1.20;;
26060;SDS011;36331;51.378;0.018;2023-03-19T12:48:55;1.50;;;1.02;;
26060;SDS011;36331;51.378;0.018;2023-03-19T12:51:27;3.10;;;0.65;;
26060;SDS011;36331;51.378;0.018;2023-03-19T12:54:11;2.40;;;0.70;;
26060;SDS011;36331;51.378;0.018;2023-03-19T12:56:45;1.88;;;0.60;;
26060;SDS011;36331;51.378;0.018;2023-03-19T12:59:20;2.15;;;0.73;;
26060;SDS011;36331;51.378;0.018;2023-03-19T13:01:55;3.05;;;0.98;;
26060;SDS011;36331;51.378;0.018;2023-03-19T13:04:26;2.35;;;0.70;;
26060;SDS011;36331;51.378;0.018;2023-03-19T13:09:28;2.38;;;0.85;;
26060;SDS011;36331;51.378;0.018;2023-03-19T13:12:00;4.72;;;1.17;;
26060;SDS011;36331;51.378;0.018;2023-03-19T13:14:35;3.35;;;0.90;;
26060;SDS011;36331;51.378;0.018;2023-03-19T13:17:07;4.05;;;1.63;;
26060;SDS011;36331;51.378;0.018;2023-03-19T13:19:42;2.20;;;0.77;;
26060;SDS011;36331;51.378;0.018;2023-03-19T13:22:12;4.07;;;1.23;;
26060;SDS011;36331;51.378;0.018;2023-03-19T13:24:44;2.40;;;0.80;;
26060;SDS011;36331;51.378;0.018;2023-03-19T13:27:21;2.70;;;0.70;;
26060;SDS011;36331;51.378;0.018;2023-03-19T13:30:01;5.78;;;0.98;;
26060;SDS011;36331;51.378;0.018;2023-03-19T13:32:35;2.58;;;0.90;;
26060;SDS011;36331;51.378;0.018;2023-03-19T13:35:12;1.58;;;0.93;;
26060;SDS011;36331;51.378;0.018;2023-03-19T13:37:45;1.50;;;0.75;;
26060;SDS011;36331;51.378;0.018;2023-03-19T13:43:09;3.28;;;1.27;;
26060;SDS011;36331;51.378;0.018;2023-03-19T13:46:02;3.10;;;1.35;;
26060;SDS011;36331;51.378;0.018;2023-03-19T13:48:34;2.58;;;0.60;;
26060;SDS011;36331;51.378;0.018;2023-03-19T13:51:04;2.40;;;0.90;;
26060;SDS011;36331;51.378;0.018;2023-03-19T13:53:36;3.75;;;1.17;;
26060;SDS011;36331;51.378;0.018;2023-03-19T13:56:07;3.30;;;1.45;;
26060;SDS011;36331;51.378;0.018;2023-03-19T14:01:42;2.53;;;0.80;;
26060;SDS011;36331;51.378;0.018;2023-03-19T14:04:16;2.97;;;1.42;;
26060;SDS011;36331;51.378;0.018;2023-03-19T14:06:46;3.30;;;1.08;;
26060;SDS011;36331;51.378;0.018;2023-03-19T14:12:20;1.33;;;0.70;;
26060;SDS011;36331;51.378;0.018;2023-03-19T14:14:51;1.92;;;0.70;;
26060;SDS011;36331;51.378;0.018;2023-03-19T14:17:25;2.53;;;0.60;;
26060;SDS011;36331;51.378;0.018;2023-03-19T14:19:55;4.03;;;0.70;;
26060;SDS011;36331;51.378;0.018;2023-03-19T14:22:36;2.60;;;0.70;;
26060;SDS011;36331;51.378;0.018;2023-03-19T14:25:13;1.97;;;0.87;;
26060;SDS011;36331;51.378;0.018;2023-03-19T14:27:44;4.25;;;0.75;;
26060;SDS011;36331;51.378;0.018;2023-03-19T14:30:18;2.40;;;0.70;;
26060;SDS011;36331;51.378;0.018;2023-03-19T14:32:50;5.15;;;1.73;;
26060;SDS011;36331;51.378;0.018;2023-03-19T14:35:20;4.85;;;0.90;;
26060;SDS011;36331;51.378;0.018;2023-03-19T14:37:49;1.40;;;0.70;;
26060;SDS011;36331;51.378;0.018;2023-03-19T14:40:20;1.48;;;0.73;;
26060;SDS011;36331;51.378;0.018;2023-03-19T14:42:52;2.05;;;0.80;;
26060;SDS011;36331;51.378;0.018;2023-03-19T14:48:25;1.70;;;0.70;;
26060;SDS011;36331;51.378;0.018;2023-03-19T14:51:08;2.25;;;0.70;;
26060;SDS011;36331;51.378;0.018;2023-03-19T14:53:40;2.40;;;0.70;;
26060;SDS011;36331;51.378;0.018;2023-03-19T14:56:12;3.83;;;0.90;;
26060;SDS011;36331;51.378;0.018;2023-03-19T14:58:52;2.53;;;0.98;;
26060;SDS011;36331;51.378;0.018;2023-03-19T15:01:21;1.48;;;0.65;;
26060;SDS011;36331;51.378;0.018;2023-03-19T15:03:55;1.65;;;0.98;;
26060;SDS011;36331;51.378;0.018;2023-03-19T15:06:24;1.83;;;1.10;;
26060;SDS011;36331;51.378;0.018;2023-03-19T15:08:53;2.08;;;0.68;;
26060;SDS011;36331;51.378;0.018;2023-03-19T15:11:31;2.97;;;0.90;;
26060;SDS011;36331;51.378;0.018;2023-03-19T15:14:06;2.30;;;0.95;;
26060;SDS011;36331;51.378;0.018;2023-03-19T15:16:40;3.75;;;0.90;;
26060;SDS011;36331;51.378;0.018;2023-03-19T15:19:14;4.03;;;1.50;;
26060;SDS011;36331;51.378;0.018;2023-03-19T15:21:46;2.80;;;0.70;;
26060;SDS011;36331;51.378;0.018;2023-03-19T15:24:16;2.72;;;0.90;;
26060;SDS011;36331;51.378;0.018;2023-03-19T15:26:46;3.05;;;0.80;;
26060;SDS011;36331;51.378;0.018;2023-03-19T15:29:16;2.65;;;0.95;;
26060;SDS011;36331;51.378;0.018;2023-03-19T15:31:46;3.63;;;0.70;;
26060;SDS011;36331;51.378;0.018;2023-03-19T15:34:30;1.65;;;0.90;;
26060;SDS011;36331;51.378;0.018;2023-03-19T15:37:01;4.57;;;0.80;;
26060;SDS011;36331;51.378;0.018;2023-03-19T15:39:33;1.95;;;0.80;;
26060;SDS011;36331;51.378;0.018;2023-03-19T15:42:03;1.67;;;0.80;;
26060;SDS011;36331;51.378;0.018;2023-03-19T15:44:33;2.47;;;0.80;;
26060;SDS011;36331;51.378;0.018;2023-03-19T15:47:04;2.00;;;0.60;;
26060;SDS011;36331;51.378;0.018;2023-03-19T15:49:36;5.07;;;0.85;;
26060;SDS011;36331;51.378;0.018;2023-03-19T15:52:07;2.00;;;0.70;;
26060;SDS011;36331;51.378;0.018;2023-03-19T15:54:38;2.42;;;0.65;;
26060;SDS011;36331;51.378;0.018;2023-03-19T15:57:07;1.08;;;0.57;;